Garfield, New Jersey
Current Conditions -  °F | °C
As of 4:51 PM on Tuesday 25 Nov 2014 (Local Time) from KTEB Reporting Station
Clear Clear  
Wind Chill: 52°   Ceiling: Unl
Heat Index: 52°   Visibility: 10mi
Dew Point: 29°   Wind: 7mph
Humidity: 41%   Direction: 220°SW
Pressure: 30.01"   Gusts: NA
Location:  40.88°N, 74.11°W
Report Text: KTEB 252151Z 22006KT 10SM CLR 11/M02 A3001 RMK AO2 SLP163 T01111017
Loading
Personal Weather Stations






























Interactive Weather Map New forecast layout! Learn more

10-Day Weather Forecast

Advertisements
Track Severe Weather on mobile